sensor_id;sensor_type;location;lat;lon;timestamp;P1;durP1;ratioP1;P2;durP2;ratioP2
12852;SDS011;6495;51.808;7.478;2022-08-21T00:02:19;5.88;;;2.75;;
12852;SDS011;6495;51.808;7.478;2022-08-21T00:04:50;6.20;;;3.03;;
12852;SDS011;6495;51.808;7.478;2022-08-21T00:07:24;7.72;;;2.80;;
12852;SDS011;6495;51.808;7.478;2022-08-21T00:09:53;4.10;;;2.45;;
12852;SDS011;6495;51.808;7.478;2022-08-21T00:12:22;8.30;;;2.92;;
12852;SDS011;6495;51.808;7.478;2022-08-21T00:14:50;2.80;;;2.28;;
12852;SDS011;6495;51.808;7.478;2022-08-21T00:17:23;5.57;;;2.70;;
12852;SDS011;6495;51.808;7.478;2022-08-21T00:19:51;4.60;;;2.90;;
12852;SDS011;6495;51.808;7.478;2022-08-21T00:22:19;5.82;;;3.00;;
12852;SDS011;6495;51.808;7.478;2022-08-21T00:24:49;6.50;;;2.75;;
12852;SDS011;6495;51.808;7.478;2022-08-21T00:27:17;4.85;;;2.95;;
12852;SDS011;6495;51.808;7.478;2022-08-21T00:29:45;4.43;;;2.88;;
12852;SDS011;6495;51.808;7.478;2022-08-21T00:32:18;8.25;;;2.95;;
12852;SDS011;6495;51.808;7.478;2022-08-21T00:34:49;6.03;;;3.25;;
12852;SDS011;6495;51.808;7.478;2022-08-21T00:37:18;4.82;;;2.72;;
12852;SDS011;6495;51.808;7.478;2022-08-21T00:39:47;7.50;;;3.00;;
12852;SDS011;6495;51.808;7.478;2022-08-21T00:42:17;9.13;;;3.30;;
12852;SDS011;6495;51.808;7.478;2022-08-21T00:44:47;5.13;;;2.85;;
12852;SDS011;6495;51.808;7.478;2022-08-21T00:47:17;4.72;;;2.83;;
12852;SDS011;6495;51.808;7.478;2022-08-21T00:49:47;7.30;;;2.92;;
12852;SDS011;6495;51.808;7.478;2022-08-21T00:52:15;8.05;;;3.30;;
12852;SDS011;6495;51.808;7.478;2022-08-21T00:54:49;5.65;;;3.15;;
12852;SDS011;6495;51.808;7.478;2022-08-21T00:57:26;6.07;;;3.10;;
12852;SDS011;6495;51.808;7.478;2022-08-21T01:00:00;4.43;;;3.33;;
12852;SDS011;6495;51.808;7.478;2022-08-21T01:02:34;6.65;;;3.65;;
12852;SDS011;6495;51.808;7.478;2022-08-21T01:05:02;4.50;;;2.85;;
12852;SDS011;6495;51.808;7.478;2022-08-21T01:07:32;4.13;;;3.47;;
12852;SDS011;6495;51.808;7.478;2022-08-21T01:10:02;7.68;;;3.63;;
12852;SDS011;6495;51.808;7.478;2022-08-21T01:12:32;6.05;;;3.78;;
12852;SDS011;6495;51.808;7.478;2022-08-21T01:15:02;6.20;;;3.58;;
12852;SDS011;6495;51.808;7.478;2022-08-21T01:17:33;6.70;;;3.33;;
12852;SDS011;6495;51.808;7.478;2022-08-21T01:20:03;3.53;;;3.22;;
12852;SDS011;6495;51.808;7.478;2022-08-21T01:22:37;7.20;;;4.00;;
12852;SDS011;6495;51.808;7.478;2022-08-21T01:25:06;6.45;;;3.55;;
12852;SDS011;6495;51.808;7.478;2022-08-21T01:27:38;4.88;;;3.08;;
12852;SDS011;6495;51.808;7.478;2022-08-21T01:30:08;6.05;;;4.13;;
12852;SDS011;6495;51.808;7.478;2022-08-21T01:32:42;6.35;;;3.60;;
12852;SDS011;6495;51.808;7.478;2022-08-21T01:35:11;4.45;;;3.47;;
12852;SDS011;6495;51.808;7.478;2022-08-21T01:37:43;5.28;;;3.55;;
12852;SDS011;6495;51.808;7.478;2022-08-21T01:40:12;4.97;;;3.78;;
12852;SDS011;6495;51.808;7.478;2022-08-21T01:42:43;6.70;;;3.88;;
12852;SDS011;6495;51.808;7.478;2022-08-21T01:45:13;6.15;;;3.47;;
12852;SDS011;6495;51.808;7.478;2022-08-21T01:47:42;7.53;;;3.63;;
12852;SDS011;6495;51.808;7.478;2022-08-21T01:50:13;6.55;;;4.30;;
12852;SDS011;6495;51.808;7.478;2022-08-21T01:52:46;7.07;;;3.88;;
12852;SDS011;6495;51.808;7.478;2022-08-21T01:55:17;4.60;;;3.85;;
12852;SDS011;6495;51.808;7.478;2022-08-21T01:57:47;7.57;;;4.20;;
12852;SDS011;6495;51.808;7.478;2022-08-21T02:00:17;5.90;;;3.60;;
12852;SDS011;6495;51.808;7.478;2022-08-21T02:02:49;4.72;;;3.85;;
12852;SDS011;6495;51.808;7.478;2022-08-21T02:05:18;5.75;;;3.60;;
12852;SDS011;6495;51.808;7.478;2022-08-21T02:07:49;5.07;;;4.47;;
12852;SDS011;6495;51.808;7.478;2022-08-21T02:10:25;7.28;;;3.47;;
12852;SDS011;6495;51.808;7.478;2022-08-21T02:13:04;6.10;;;3.83;;
12852;SDS011;6495;51.808;7.478;2022-08-21T02:15:38;5.90;;;3.67;;
12852;SDS011;6495;51.808;7.478;2022-08-21T02:18:09;5.90;;;4.00;;
12852;SDS011;6495;51.808;7.478;2022-08-21T02:20:39;8.65;;;3.88;;
12852;SDS011;6495;51.808;7.478;2022-08-21T02:23:13;7.03;;;3.88;;
12852;SDS011;6495;51.808;7.478;2022-08-21T02:25:45;9.10;;;4.25;;
12852;SDS011;6495;51.808;7.478;2022-08-21T02:28:14;8.40;;;4.28;;
12852;SDS011;6495;51.808;7.478;2022-08-21T02:30:44;6.88;;;3.90;;
12852;SDS011;6495;51.808;7.478;2022-08-21T02:33:14;4.55;;;3.53;;
12852;SDS011;6495;51.808;7.478;2022-08-21T02:35:44;4.85;;;3.42;;
12852;SDS011;6495;51.808;7.478;2022-08-21T02:38:16;5.72;;;3.70;;
12852;SDS011;6495;51.808;7.478;2022-08-21T02:40:48;7.53;;;3.70;;
12852;SDS011;6495;51.808;7.478;2022-08-21T02:43:18;5.35;;;3.90;;
12852;SDS011;6495;51.808;7.478;2022-08-21T02:45:48;4.72;;;3.65;;
12852;SDS011;6495;51.808;7.478;2022-08-21T02:48:19;5.10;;;3.42;;
12852;SDS011;6495;51.808;7.478;2022-08-21T02:50:52;7.78;;;4.40;;
12852;SDS011;6495;51.808;7.478;2022-08-21T02:53:24;6.30;;;3.75;;
12852;SDS011;6495;51.808;7.478;2022-08-21T02:55:53;5.13;;;3.40;;
12852;SDS011;6495;51.808;7.478;2022-08-21T02:58:25;5.97;;;4.22;;
12852;SDS011;6495;51.808;7.478;2022-08-21T03:00:56;7.57;;;4.43;;
12852;SDS011;6495;51.808;7.478;2022-08-21T03:03:25;5.63;;;4.25;;
12852;SDS011;6495;51.808;7.478;2022-08-21T03:05:55;8.73;;;4.38;;
12852;SDS011;6495;51.808;7.478;2022-08-21T03:08:25;6.55;;;4.00;;
12852;SDS011;6495;51.808;7.478;2022-08-21T03:10:53;6.90;;;4.45;;
12852;SDS011;6495;51.808;7.478;2022-08-21T03:13:22;8.07;;;4.20;;
12852;SDS011;6495;51.808;7.478;2022-08-21T03:15:50;5.32;;;4.30;;
12852;SDS011;6495;51.808;7.478;2022-08-21T03:18:19;8.75;;;4.18;;
12852;SDS011;6495;51.808;7.478;2022-08-21T03:20:48;5.75;;;4.20;;
12852;SDS011;6495;51.808;7.478;2022-08-21T03:23:17;6.43;;;4.07;;
12852;SDS011;6495;51.808;7.478;2022-08-21T03:25:47;9.23;;;4.05;;
12852;SDS011;6495;51.808;7.478;2022-08-21T03:28:19;7.30;;;4.45;;
12852;SDS011;6495;51.808;7.478;2022-08-21T03:30:50;7.13;;;4.22;;
12852;SDS011;6495;51.808;7.478;2022-08-21T03:33:19;8.95;;;4.40;;
12852;SDS011;6495;51.808;7.478;2022-08-21T03:35:51;7.03;;;4.18;;
12852;SDS011;6495;51.808;7.478;2022-08-21T03:38:27;8.80;;;4.70;;
12852;SDS011;6495;51.808;7.478;2022-08-21T03:40:59;6.10;;;4.32;;
12852;SDS011;6495;51.808;7.478;2022-08-21T03:43:28;8.18;;;4.00;;
12852;SDS011;6495;51.808;7.478;2022-08-21T03:45:57;10.68;;;4.22;;
12852;SDS011;6495;51.808;7.478;2022-08-21T03:48:26;5.90;;;4.22;;
12852;SDS011;6495;51.808;7.478;2022-08-21T03:50:54;7.30;;;4.18;;
12852;SDS011;6495;51.808;7.478;2022-08-21T03:53:22;4.55;;;3.85;;
12852;SDS011;6495;51.808;7.478;2022-08-21T03:55:52;6.30;;;4.15;;
12852;SDS011;6495;51.808;7.478;2022-08-21T03:58:23;6.10;;;4.03;;
12852;SDS011;6495;51.808;7.478;2022-08-21T04:00:55;9.02;;;4.57;;
12852;SDS011;6495;51.808;7.478;2022-08-21T04:03:27;5.75;;;4.40;;
12852;SDS011;6495;51.808;7.478;2022-08-21T04:05:55;8.18;;;4.53;;
12852;SDS011;6495;51.808;7.478;2022-08-21T04:08:24;5.68;;;4.68;;
12852;SDS011;6495;51.808;7.478;2022-08-21T04:10:53;6.43;;;4.32;;
12852;SDS011;6495;51.808;7.478;2022-08-21T04:13:26;4.68;;;4.05;;
12852;SDS011;6495;51.808;7.478;2022-08-21T04:15:55;5.13;;;4.38;;
12852;SDS011;6495;51.808;7.478;2022-08-21T04:18:24;6.38;;;4.00;;
12852;SDS011;6495;51.808;7.478;2022-08-21T04:20:52;9.32;;;4.50;;
12852;SDS011;6495;51.808;7.478;2022-08-21T04:23:23;4.80;;;4.03;;
12852;SDS011;6495;51.808;7.478;2022-08-21T04:25:52;5.07;;;4.47;;
12852;SDS011;6495;51.808;7.478;2022-08-21T04:28:23;6.57;;;4.80;;
12852;SDS011;6495;51.808;7.478;2022-08-21T04:30:57;5.63;;;4.40;;
12852;SDS011;6495;51.808;7.478;2022-08-21T04:33:25;10.70;;;4.75;;
12852;SDS011;6495;51.808;7.478;2022-08-21T04:35:54;7.25;;;5.20;;
12852;SDS011;6495;51.808;7.478;2022-08-21T04:38:22;5.93;;;4.50;;
12852;SDS011;6495;51.808;7.478;2022-08-21T04:40:50;7.05;;;4.93;;
12852;SDS011;6495;51.808;7.478;2022-08-21T04:43:19;9.82;;;4.63;;
12852;SDS011;6495;51.808;7.478;2022-08-21T04:45:50;5.65;;;4.60;;
12852;SDS011;6495;51.808;7.478;2022-08-21T04:48:21;8.15;;;4.97;;
12852;SDS011;6495;51.808;7.478;2022-08-21T04:50:52;7.55;;;4.60;;
12852;SDS011;6495;51.808;7.478;2022-08-21T04:53:29;7.18;;;4.90;;
12852;SDS011;6495;51.808;7.478;2022-08-21T04:56:04;7.28;;;5.20;;
12852;SDS011;6495;51.808;7.478;2022-08-21T04:58:38;6.65;;;4.32;;
12852;SDS011;6495;51.808;7.478;2022-08-21T05:01:09;5.88;;;4.38;;
12852;SDS011;6495;51.808;7.478;2022-08-21T05:03:43;5.65;;;4.63;;
12852;SDS011;6495;51.808;7.478;2022-08-21T05:06:15;5.47;;;4.35;;
12852;SDS011;6495;51.808;7.478;2022-08-21T05:08:45;5.47;;;4.68;;
12852;SDS011;6495;51.808;7.478;2022-08-21T05:11:27;7.68;;;4.75;;
12852;SDS011;6495;51.808;7.478;2022-08-21T05:13:57;7.57;;;4.53;;
12852;SDS011;6495;51.808;7.478;2022-08-21T05:16:27;6.32;;;4.72;;
12852;SDS011;6495;51.808;7.478;2022-08-21T05:19:04;6.18;;;4.43;;
12852;SDS011;6495;51.808;7.478;2022-08-21T05:21:33;6.30;;;4.82;;
12852;SDS011;6495;51.808;7.478;2022-08-21T05:24:02;6.35;;;5.07;;
12852;SDS011;6495;51.808;7.478;2022-08-21T05:26:30;9.80;;;4.85;;
12852;SDS011;6495;51.808;7.478;2022-08-21T05:29:11;8.15;;;4.82;;
12852;SDS011;6495;51.808;7.478;2022-08-21T05:31:41;7.88;;;5.05;;
12852;SDS011;6495;51.808;7.478;2022-08-21T05:34:12;6.72;;;4.93;;
12852;SDS011;6495;51.808;7.478;2022-08-21T05:36:42;9.80;;;5.55;;
12852;SDS011;6495;51.808;7.478;2022-08-21T05:39:10;9.30;;;5.50;;
12852;SDS011;6495;51.808;7.478;2022-08-21T05:41:38;9.38;;;5.05;;
12852;SDS011;6495;51.808;7.478;2022-08-21T05:44:07;11.05;;;5.57;;
12852;SDS011;6495;51.808;7.478;2022-08-21T05:46:36;6.97;;;5.45;;
12852;SDS011;6495;51.808;7.478;2022-08-21T05:49:05;7.57;;;5.13;;
12852;SDS011;6495;51.808;7.478;2022-08-21T05:51:34;9.05;;;5.80;;
12852;SDS011;6495;51.808;7.478;2022-08-21T05:54:03;7.53;;;5.90;;
12852;SDS011;6495;51.808;7.478;2022-08-21T05:56:33;6.07;;;5.05;;
12852;SDS011;6495;51.808;7.478;2022-08-21T05:59:01;8.38;;;5.30;;
12852;SDS011;6495;51.808;7.478;2022-08-21T06:01:34;7.97;;;4.82;;
12852;SDS011;6495;51.808;7.478;2022-08-21T06:04:02;7.15;;;4.82;;
12852;SDS011;6495;51.808;7.478;2022-08-21T06:06:31;7.07;;;5.47;;
12852;SDS011;6495;51.808;7.478;2022-08-21T06:09:02;6.70;;;5.15;;
12852;SDS011;6495;51.808;7.478;2022-08-21T06:11:31;8.52;;;5.10;;
12852;SDS011;6495;51.808;7.478;2022-08-21T06:14:00;7.18;;;5.10;;
12852;SDS011;6495;51.808;7.478;2022-08-21T06:16:29;7.63;;;5.35;;
12852;SDS011;6495;51.808;7.478;2022-08-21T06:18:57;9.07;;;5.75;;
12852;SDS011;6495;51.808;7.478;2022-08-21T06:21:28;7.65;;;5.45;;
12852;SDS011;6495;51.808;7.478;2022-08-21T06:24:08;5.65;;;4.90;;
12852;SDS011;6495;51.808;7.478;2022-08-21T06:26:37;7.15;;;5.55;;
12852;SDS011;6495;51.808;7.478;2022-08-21T06:29:05;6.45;;;5.53;;
12852;SDS011;6495;51.808;7.478;2022-08-21T06:31:36;10.23;;;6.18;;
12852;SDS011;6495;51.808;7.478;2022-08-21T06:34:06;9.88;;;6.05;;
12852;SDS011;6495;51.808;7.478;2022-08-21T06:36:35;9.48;;;5.93;;
12852;SDS011;6495;51.808;7.478;2022-08-21T06:39:04;6.43;;;5.15;;
12852;SDS011;6495;51.808;7.478;2022-08-21T06:41:52;7.72;;;5.53;;
12852;SDS011;6495;51.808;7.478;2022-08-21T06:44:21;13.07;;;5.30;;
12852;SDS011;6495;51.808;7.478;2022-08-21T06:46:50;11.70;;;6.68;;
12852;SDS011;6495;51.808;7.478;2022-08-21T06:49:19;7.18;;;5.05;;
12852;SDS011;6495;51.808;7.478;2022-08-21T06:51:48;9.68;;;4.93;;
12852;SDS011;6495;51.808;7.478;2022-08-21T06:54:18;6.88;;;5.20;;
12852;SDS011;6495;51.808;7.478;2022-08-21T06:56:46;9.52;;;5.07;;
12852;SDS011;6495;51.808;7.478;2022-08-21T06:59:15;8.95;;;5.38;;
12852;SDS011;6495;51.808;7.478;2022-08-21T07:01:44;6.88;;;4.78;;
12852;SDS011;6495;51.808;7.478;2022-08-21T07:04:12;8.10;;;4.97;;
12852;SDS011;6495;51.808;7.478;2022-08-21T07:06:40;8.07;;;5.40;;
12852;SDS011;6495;51.808;7.478;2022-08-21T07:09:09;9.80;;;5.20;;
12852;SDS011;6495;51.808;7.478;2022-08-21T07:11:37;8.00;;;5.47;;
12852;SDS011;6495;51.808;7.478;2022-08-21T07:14:13;9.50;;;5.20;;
12852;SDS011;6495;51.808;7.478;2022-08-21T07:16:47;8.57;;;5.72;;
12852;SDS011;6495;51.808;7.478;2022-08-21T07:19:17;9.02;;;5.40;;
12852;SDS011;6495;51.808;7.478;2022-08-21T07:21:46;10.93;;;5.88;;
12852;SDS011;6495;51.808;7.478;2022-08-21T07:24:14;11.95;;;6.00;;
12852;SDS011;6495;51.808;7.478;2022-08-21T07:26:52;9.40;;;5.90;;
12852;SDS011;6495;51.808;7.478;2022-08-21T07:29:20;13.73;;;6.97;;
12852;SDS011;6495;51.808;7.478;2022-08-21T07:31:52;10.60;;;7.30;;
12852;SDS011;6495;51.808;7.478;2022-08-21T07:34:21;15.02;;;6.50;;
12852;SDS011;6495;51.808;7.478;2022-08-21T07:36:49;13.77;;;7.32;;
12852;SDS011;6495;51.808;7.478;2022-08-21T07:39:18;11.57;;;7.47;;
12852;SDS011;6495;51.808;7.478;2022-08-21T07:41:47;10.93;;;6.40;;
12852;SDS011;6495;51.808;7.478;2022-08-21T07:44:24;9.48;;;6.60;;
12852;SDS011;6495;51.808;7.478;2022-08-21T07:46:54;10.55;;;6.93;;
12852;SDS011;6495;51.808;7.478;2022-08-21T07:49:22;11.02;;;6.65;;
12852;SDS011;6495;51.808;7.478;2022-08-21T07:58:34;11.88;;;7.03;;
12852;SDS011;6495;51.808;7.478;2022-08-21T08:01:06;11.57;;;7.13;;
12852;SDS011;6495;51.808;7.478;2022-08-21T08:06:36;14.00;;;6.60;;
12852;SDS011;6495;51.808;7.478;2022-08-21T08:09:05;9.15;;;6.28;;
12852;SDS011;6495;51.808;7.478;2022-08-21T08:11:33;10.45;;;6.72;;
12852;SDS011;6495;51.808;7.478;2022-08-21T08:14:05;11.73;;;6.20;;
12852;SDS011;6495;51.808;7.478;2022-08-21T08:16:35;9.80;;;6.03;;
12852;SDS011;6495;51.808;7.478;2022-08-21T08:19:04;9.82;;;6.70;;
12852;SDS011;6495;51.808;7.478;2022-08-21T08:21:33;13.27;;;6.20;;
12852;SDS011;6495;51.808;7.478;2022-08-21T08:24:03;10.85;;;6.30;;
12852;SDS011;6495;51.808;7.478;2022-08-21T08:26:45;8.43;;;5.65;;
12852;SDS011;6495;51.808;7.478;2022-08-21T08:29:22;7.18;;;5.18;;
12852;SDS011;6495;51.808;7.478;2022-08-21T08:31:53;10.10;;;4.95;;
12852;SDS011;6495;51.808;7.478;2022-08-21T08:34:25;9.23;;;4.00;;
12852;SDS011;6495;51.808;7.478;2022-08-21T08:36:57;11.30;;;4.13;;
12852;SDS011;6495;51.808;7.478;2022-08-21T08:39:26;6.70;;;3.55;;
12852;SDS011;6495;51.808;7.478;2022-08-21T08:41:58;7.35;;;3.88;;
12852;SDS011;6495;51.808;7.478;2022-08-21T08:44:55;4.57;;;2.80;;
12852;SDS011;6495;51.808;7.478;2022-08-21T08:47:32;3.92;;;2.38;;
12852;SDS011;6495;51.808;7.478;2022-08-21T08:50:07;6.82;;;2.45;;
12852;SDS011;6495;51.808;7.478;2022-08-21T08:52:47;3.53;;;2.25;;
12852;SDS011;6495;51.808;7.478;2022-08-21T08:55:26;4.75;;;2.38;;
12852;SDS011;6495;51.808;7.478;2022-08-21T08:58:02;3.50;;;2.45;;
12852;SDS011;6495;51.808;7.478;2022-08-21T09:00:31;6.30;;;2.55;;
12852;SDS011;6495;51.808;7.478;2022-08-21T09:03:01;5.47;;;2.10;;
12852;SDS011;6495;51.808;7.478;2022-08-21T09:05:35;4.65;;;2.13;;
12852;SDS011;6495;51.808;7.478;2022-08-21T09:08:15;6.18;;;2.75;;
12852;SDS011;6495;51.808;7.478;2022-08-21T09:11:06;3.33;;;2.03;;
12852;SDS011;6495;51.808;7.478;2022-08-21T09:13:50;4.65;;;2.45;;
12852;SDS011;6495;51.808;7.478;2022-08-21T09:16:36;8.90;;;2.42;;
12852;SDS011;6495;51.808;7.478;2022-08-21T09:19:22;4.97;;;2.20;;
12852;SDS011;6495;51.808;7.478;2022-08-21T09:22:13;3.53;;;2.13;;
12852;SDS011;6495;51.808;7.478;2022-08-21T09:24:59;3.58;;;2.38;;
12852;SDS011;6495;51.808;7.478;2022-08-21T09:27:42;3.88;;;2.25;;
12852;SDS011;6495;51.808;7.478;2022-08-21T09:30:14;7.30;;;2.13;;
12852;SDS011;6495;51.808;7.478;2022-08-21T09:32:44;4.03;;;2.25;;
12852;SDS011;6495;51.808;7.478;2022-08-21T09:35:13;4.45;;;1.90;;
12852;SDS011;6495;51.808;7.478;2022-08-21T09:37:49;8.63;;;2.40;;
12852;SDS011;6495;51.808;7.478;2022-08-21T09:40:27;4.32;;;2.00;;
12852;SDS011;6495;51.808;7.478;2022-08-21T09:43:03;6.10;;;2.25;;
12852;SDS011;6495;51.808;7.478;2022-08-21T09:45:42;7.45;;;2.15;;
12852;SDS011;6495;51.808;7.478;2022-08-21T09:48:17;3.60;;;1.85;;
12852;SDS011;6495;51.808;7.478;2022-08-21T09:50:52;3.97;;;2.00;;
12852;SDS011;6495;51.808;7.478;2022-08-21T09:53:37;4.35;;;2.00;;
12852;SDS011;6495;51.808;7.478;2022-08-21T09:56:18;4.97;;;1.83;;
12852;SDS011;6495;51.808;7.478;2022-08-21T09:59:16;3.90;;;1.77;;
12852;SDS011;6495;51.808;7.478;2022-08-21T10:01:56;6.75;;;2.60;;
12852;SDS011;6495;51.808;7.478;2022-08-21T10:04:34;3.75;;;1.80;;
12852;SDS011;6495;51.808;7.478;2022-08-21T10:07:07;4.30;;;1.85;;
12852;SDS011;6495;51.808;7.478;2022-08-21T10:09:37;3.67;;;2.03;;
12852;SDS011;6495;51.808;7.478;2022-08-21T10:12:08;3.60;;;1.98;;
12852;SDS011;6495;51.808;7.478;2022-08-21T10:14:46;6.32;;;2.03;;
12852;SDS011;6495;51.808;7.478;2022-08-21T10:17:27;4.75;;;2.05;;
12852;SDS011;6495;51.808;7.478;2022-08-21T10:20:14;5.32;;;2.05;;
12852;SDS011;6495;51.808;7.478;2022-08-21T10:22:55;2.20;;;1.55;;
12852;SDS011;6495;51.808;7.478;2022-08-21T10:25:49;3.22;;;1.67;;
12852;SDS011;6495;51.808;7.478;2022-08-21T10:28:41;3.30;;;2.50;;
12852;SDS011;6495;51.808;7.478;2022-08-21T10:31:31;2.92;;;1.80;;
12852;SDS011;6495;51.808;7.478;2022-08-21T10:34:21;3.25;;;1.80;;
12852;SDS011;6495;51.808;7.478;2022-08-21T10:37:15;2.85;;;1.63;;
12852;SDS011;6495;51.808;7.478;2022-08-21T10:40:05;4.70;;;1.92;;
12852;SDS011;6495;51.808;7.478;2022-08-21T10:43:02;3.00;;;1.83;;
12852;SDS011;6495;51.808;7.478;2022-08-21T10:46:00;3.30;;;1.80;;
12852;SDS011;6495;51.808;7.478;2022-08-21T10:48:43;4.32;;;2.03;;
12852;SDS011;6495;51.808;7.478;2022-08-21T10:51:18;1.85;;;1.60;;
12852;SDS011;6495;51.808;7.478;2022-08-21T10:54:03;3.47;;;1.73;;
12852;SDS011;6495;51.808;7.478;2022-08-21T10:56:50;3.63;;;1.60;;
12852;SDS011;6495;51.808;7.478;2022-08-21T10:59:38;2.85;;;1.55;;
12852;SDS011;6495;51.808;7.478;2022-08-21T11:02:17;3.58;;;1.58;;
12852;SDS011;6495;51.808;7.478;2022-08-21T11:05:05;3.50;;;1.40;;
12852;SDS011;6495;51.808;7.478;2022-08-21T11:07:43;3.25;;;1.90;;
12852;SDS011;6495;51.808;7.478;2022-08-21T11:10:21;3.45;;;1.52;;
12852;SDS011;6495;51.808;7.478;2022-08-21T11:12:55;3.05;;;1.15;;
12852;SDS011;6495;51.808;7.478;2022-08-21T11:15:33;4.90;;;1.50;;
12852;SDS011;6495;51.808;7.478;2022-08-21T11:18:16;3.05;;;1.63;;
12852;SDS011;6495;51.808;7.478;2022-08-21T11:20:56;6.53;;;1.50;;
12852;SDS011;6495;51.808;7.478;2022-08-21T11:23:40;4.68;;;1.50;;
12852;SDS011;6495;51.808;7.478;2022-08-21T11:26:22;4.25;;;1.50;;
12852;SDS011;6495;51.808;7.478;2022-08-21T11:29:01;1.77;;;1.40;;
12852;SDS011;6495;51.808;7.478;2022-08-21T11:31:43;4.15;;;1.33;;
12852;SDS011;6495;51.808;7.478;2022-08-21T11:34:33;1.58;;;1.20;;
12852;SDS011;6495;51.808;7.478;2022-08-21T11:37:26;1.63;;;0.90;;
12852;SDS011;6495;51.808;7.478;2022-08-21T11:40:24;3.15;;;1.10;;
12852;SDS011;6495;51.808;7.478;2022-08-21T11:43:36;2.58;;;1.20;;
12852;SDS011;6495;51.808;7.478;2022-08-21T11:46:11;3.42;;;1.20;;
12852;SDS011;6495;51.808;7.478;2022-08-21T11:49:07;1.40;;;1.10;;
12852;SDS011;6495;51.808;7.478;2022-08-21T11:52:02;1.77;;;1.00;;
12852;SDS011;6495;51.808;7.478;2022-08-21T11:54:44;2.72;;;1.40;;
12852;SDS011;6495;51.808;7.478;2022-08-21T11:57:23;3.20;;;1.40;;
12852;SDS011;6495;51.808;7.478;2022-08-21T11:59:58;1.58;;;1.25;;
12852;SDS011;6495;51.808;7.478;2022-08-21T12:02:34;2.53;;;1.00;;
12852;SDS011;6495;51.808;7.478;2022-08-21T12:05:22;2.47;;;1.30;;
12852;SDS011;6495;51.808;7.478;2022-08-21T12:08:03;2.42;;;1.20;;
12852;SDS011;6495;51.808;7.478;2022-08-21T12:10:35;3.83;;;1.02;;
12852;SDS011;6495;51.808;7.478;2022-08-21T12:13:11;4.78;;;1.40;;
12852;SDS011;6495;51.808;7.478;2022-08-21T12:16:09;3.88;;;1.00;;
12852;SDS011;6495;51.808;7.478;2022-08-21T12:18:41;3.13;;;1.30;;
12852;SDS011;6495;51.808;7.478;2022-08-21T12:21:19;3.65;;;1.30;;
12852;SDS011;6495;51.808;7.478;2022-08-21T12:24:01;3.00;;;1.02;;
12852;SDS011;6495;51.808;7.478;2022-08-21T12:26:50;1.65;;;1.05;;
12852;SDS011;6495;51.808;7.478;2022-08-21T12:29:22;4.75;;;1.60;;
12852;SDS011;6495;51.808;7.478;2022-08-21T12:31:58;3.08;;;1.20;;
12852;SDS011;6495;51.808;7.478;2022-08-21T12:34:34;1.55;;;1.10;;
12852;SDS011;6495;51.808;7.478;2022-08-21T12:37:11;1.75;;;1.10;;
12852;SDS011;6495;51.808;7.478;2022-08-21T12:39:52;3.33;;;0.95;;
12852;SDS011;6495;51.808;7.478;2022-08-21T12:42:27;2.85;;;1.30;;
12852;SDS011;6495;51.808;7.478;2022-08-21T12:47:57;2.33;;;1.00;;
12852;SDS011;6495;51.808;7.478;2022-08-21T12:50:32;2.95;;;1.20;;
12852;SDS011;6495;51.808;7.478;2022-08-21T12:53:07;2.30;;;1.30;;
12852;SDS011;6495;51.808;7.478;2022-08-21T12:55:46;3.72;;;1.10;;
12852;SDS011;6495;51.808;7.478;2022-08-21T12:58:18;3.38;;;1.05;;
12852;SDS011;6495;51.808;7.478;2022-08-21T13:00:49;7.50;;;1.52;;
12852;SDS011;6495;51.808;7.478;2022-08-21T13:03:21;3.38;;;1.23;;
12852;SDS011;6495;51.808;7.478;2022-08-21T13:05:54;2.72;;;1.20;;
12852;SDS011;6495;51.808;7.478;2022-08-21T13:08:24;3.38;;;1.38;;
12852;SDS011;6495;51.808;7.478;2022-08-21T13:10:57;2.25;;;1.10;;
12852;SDS011;6495;51.808;7.478;2022-08-21T13:13:40;2.92;;;1.20;;
12852;SDS011;6495;51.808;7.478;2022-08-21T13:16:18;1.33;;;1.02;;
12852;SDS011;6495;51.808;7.478;2022-08-21T13:18:55;4.43;;;1.30;;
12852;SDS011;6495;51.808;7.478;2022-08-21T13:21:28;1.73;;;1.10;;
12852;SDS011;6495;51.808;7.478;2022-08-21T13:24:10;1.63;;;1.13;;
12852;SDS011;6495;51.808;7.478;2022-08-21T13:27:14;4.47;;;1.23;;
12852;SDS011;6495;51.808;7.478;2022-08-21T13:29:49;3.05;;;1.30;;
12852;SDS011;6495;51.808;7.478;2022-08-21T13:32:37;3.40;;;1.30;;
12852;SDS011;6495;51.808;7.478;2022-08-21T13:35:14;2.83;;;1.20;;
12852;SDS011;6495;51.808;7.478;2022-08-21T13:37:46;5.85;;;1.38;;
12852;SDS011;6495;51.808;7.478;2022-08-21T13:40:19;2.05;;;1.30;;
12852;SDS011;6495;51.808;7.478;2022-08-21T13:42:53;3.80;;;1.23;;
12852;SDS011;6495;51.808;7.478;2022-08-21T13:45:25;5.35;;;1.20;;
12852;SDS011;6495;51.808;7.478;2022-08-21T13:48:00;4.18;;;1.33;;
12852;SDS011;6495;51.808;7.478;2022-08-21T13:50:32;2.92;;;1.20;;
12852;SDS011;6495;51.808;7.478;2022-08-21T13:53:04;2.60;;;1.27;;
12852;SDS011;6495;51.808;7.478;2022-08-21T13:55:37;2.35;;;1.58;;
12852;SDS011;6495;51.808;7.478;2022-08-21T13:58:09;2.55;;;1.10;;
12852;SDS011;6495;51.808;7.478;2022-08-21T14:00:44;1.98;;;1.25;;
12852;SDS011;6495;51.808;7.478;2022-08-21T14:03:23;3.92;;;1.55;;
12852;SDS011;6495;51.808;7.478;2022-08-21T14:06:00;2.15;;;1.30;;
12852;SDS011;6495;51.808;7.478;2022-08-21T14:08:31;6.30;;;1.42;;
12852;SDS011;6495;51.808;7.478;2022-08-21T14:11:04;2.75;;;1.42;;
12852;SDS011;6495;51.808;7.478;2022-08-21T14:13:37;3.17;;;1.50;;
12852;SDS011;6495;51.808;7.478;2022-08-21T14:16:14;3.97;;;1.25;;
12852;SDS011;6495;51.808;7.478;2022-08-21T14:18:46;3.45;;;1.33;;
12852;SDS011;6495;51.808;7.478;2022-08-21T14:21:28;2.28;;;1.13;;
12852;SDS011;6495;51.808;7.478;2022-08-21T14:24:04;2.45;;;0.98;;
12852;SDS011;6495;51.808;7.478;2022-08-21T14:26:44;3.13;;;1.08;;
12852;SDS011;6495;51.808;7.478;2022-08-21T14:29:19;4.28;;;1.30;;
12852;SDS011;6495;51.808;7.478;2022-08-21T14:31:52;2.97;;;1.30;;
12852;SDS011;6495;51.808;7.478;2022-08-21T14:34:24;3.45;;;1.05;;
12852;SDS011;6495;51.808;7.478;2022-08-21T14:37:01;2.33;;;1.20;;
12852;SDS011;6495;51.808;7.478;2022-08-21T14:39:29;2.65;;;1.10;;
12852;SDS011;6495;51.808;7.478;2022-08-21T14:41:58;1.08;;;0.95;;
12852;SDS011;6495;51.808;7.478;2022-08-21T14:44:27;2.33;;;1.15;;
12852;SDS011;6495;51.808;7.478;2022-08-21T14:46:55;3.70;;;1.27;;
12852;SDS011;6495;51.808;7.478;2022-08-21T14:49:24;1.10;;;1.00;;
12852;SDS011;6495;51.808;7.478;2022-08-21T14:51:54;1.63;;;1.10;;
12852;SDS011;6495;51.808;7.478;2022-08-21T14:54:25;4.28;;;1.50;;
12852;SDS011;6495;51.808;7.478;2022-08-21T14:57:00;1.40;;;1.00;;
12852;SDS011;6495;51.808;7.478;2022-08-21T14:59:32;2.88;;;1.10;;
12852;SDS011;6495;51.808;7.478;2022-08-21T15:02:02;2.88;;;1.20;;
12852;SDS011;6495;51.808;7.478;2022-08-21T15:04:32;4.30;;;1.55;;
12852;SDS011;6495;51.808;7.478;2022-08-21T15:07:01;2.72;;;1.30;;
12852;SDS011;6495;51.808;7.478;2022-08-21T15:09:30;3.28;;;1.40;;
12852;SDS011;6495;51.808;7.478;2022-08-21T15:12:00;2.72;;;1.30;;
12852;SDS011;6495;51.808;7.478;2022-08-21T15:14:30;3.13;;;1.23;;
12852;SDS011;6495;51.808;7.478;2022-08-21T15:17:03;2.78;;;1.20;;
12852;SDS011;6495;51.808;7.478;2022-08-21T15:19:34;2.88;;;1.20;;
12852;SDS011;6495;51.808;7.478;2022-08-21T15:22:03;3.47;;;1.30;;
12852;SDS011;6495;51.808;7.478;2022-08-21T15:24:44;2.90;;;1.25;;
12852;SDS011;6495;51.808;7.478;2022-08-21T15:27:13;2.28;;;1.25;;
12852;SDS011;6495;51.808;7.478;2022-08-21T15:29:44;3.33;;;1.20;;
12852;SDS011;6495;51.808;7.478;2022-08-21T15:32:17;3.08;;;1.33;;
12852;SDS011;6495;51.808;7.478;2022-08-21T15:34:50;3.47;;;1.40;;
12852;SDS011;6495;51.808;7.478;2022-08-21T15:37:19;1.80;;;1.15;;
12852;SDS011;6495;51.808;7.478;2022-08-21T15:39:49;1.45;;;1.10;;
12852;SDS011;6495;51.808;7.478;2022-08-21T15:42:20;2.70;;;1.15;;
12852;SDS011;6495;51.808;7.478;2022-08-21T15:44:52;2.35;;;1.10;;
12852;SDS011;6495;51.808;7.478;2022-08-21T15:47:25;2.58;;;1.00;;
12852;SDS011;6495;51.808;7.478;2022-08-21T15:50:00;4.28;;;1.20;;
12852;SDS011;6495;51.808;7.478;2022-08-21T15:52:37;1.88;;;1.10;;
12852;SDS011;6495;51.808;7.478;2022-08-21T15:55:09;1.88;;;1.10;;